Time;durP1;ratioP1;P1;durP2;ratioP2;P2;SDS_P1;SDS_P2;PMS_P1;PMS_P2;Temp;Humidity;BMP_temperature;BMP_pressure;BME280_temperature;BME280_humidity;BME280_pressure;Samples;Min_cycle;Max_cycle;Signal;HPM_P1;HPM_P2
2023/12/29 00:01:18;;;;;;;;;1.00;1.00;;;;;;;;5077519;28;45178;-71
2023/12/29 00:03:43;;;;;;;;;1.00;1.00;;;;;;;;5077485;27;45302;-71
2023/12/29 00:06:09;;;;;;;;;1.67;1.00;;;;;;;;5079714;28;45465;-72
2023/12/29 00:08:36;;;;;;;;;0.67;0.67;;;;;;;;5080765;27;45315;-71
2023/12/29 00:11:01;;;;;;;;;1.00;1.00;;;;;;;;5080857;27;45238;-71
2023/12/29 00:13:27;;;;;;;;;1.00;1.00;;;;;;;;5079466;28;45523;-71
2023/12/29 00:15:52;;;;;;;;;1.00;1.00;;;;;;;;5081033;27;45467;-71
2023/12/29 00:18:18;;;;;;;;;1.00;1.00;;;;;;;;5080914;27;45979;-71
2023/12/29 00:20:43;;;;;;;;;2.00;2.00;;;;;;;;5080659;27;45556;-71
2023/12/29 00:23:09;;;;;;;;;1.33;1.33;;;;;;;;5080766;27;45585;-71
2023/12/29 00:25:37;;;;;;;;;2.00;1.00;;;;;;;;5080751;27;45257;-71
2023/12/29 00:28:03;;;;;;;;;1.00;1.00;;;;;;;;5080437;27;45334;-71
2023/12/29 00:30:31;;;;;;;;;0.00;0.00;;;;;;;;5080451;27;45488;-71
2023/12/29 00:32:57;;;;;;;;;0.67;0.67;;;;;;;;5080674;27;45313;-71
2023/12/29 00:35:22;;;;;;;;;1.00;0.00;;;;;;;;5080637;27;45476;-71
2023/12/29 00:37:48;;;;;;;;;1.00;1.00;;;;;;;;5080651;27;46434;-71
2023/12/29 00:40:13;;;;;;;;;1.00;1.00;;;;;;;;5080438;27;45223;-71
2023/12/29 00:42:38;;;;;;;;;0.00;0.00;;;;;;;;5080487;27;45198;-71
2023/12/29 00:45:04;;;;;;;;;0.00;0.00;;;;;;;;5080546;27;45438;-71
2023/12/29 00:47:30;;;;;;;;;0.33;0.33;;;;;;;;5079932;27;45465;-71
2023/12/29 00:49:55;;;;;;;;;0.00;0.00;;;;;;;;5080030;27;45407;-71
2023/12/29 00:52:21;;;;;;;;;0.67;0.00;;;;;;;;5080818;27;45471;-71
2023/12/29 00:54:46;;;;;;;;;0.00;0.00;;;;;;;;5080449;27;45630;-72
2023/12/29 00:57:11;;;;;;;;;1.00;1.00;;;;;;;;5080258;27;45419;-71
2023/12/29 00:59:38;;;;;;;;;1.33;1.00;;;;;;;;5080316;27;45295;-71
2023/12/29 01:02:04;;;;;;;;;4.00;2.00;;;;;;;;5079998;27;45401;-71
2023/12/29 01:04:29;;;;;;;;;4.00;3.00;;;;;;;;5079882;27;45484;-71
2023/12/29 01:06:54;;;;;;;;;1.00;1.00;;;;;;;;5078263;28;45503;-71
2023/12/29 01:09:20;;;;;;;;;1.00;1.00;;;;;;;;5079979;27;45501;-71
2023/12/29 01:11:45;;;;;;;;;2.00;1.00;;;;;;;;5079975;27;45325;-71
2023/12/29 01:14:10;;;;;;;;;0.00;0.00;;;;;;;;5080108;27;45456;-71
2023/12/29 01:16:36;;;;;;;;;0.00;0.00;;;;;;;;5078767;27;46032;-71
2023/12/29 01:19:01;;;;;;;;;1.00;1.00;;;;;;;;5079712;27;45413;-71
2023/12/29 01:21:27;;;;;;;;;6.00;6.00;;;;;;;;5079771;28;45556;-71
2023/12/29 01:23:52;;;;;;;;;3.00;3.00;;;;;;;;5080279;27;45361;-71
2023/12/29 01:26:17;;;;;;;;;2.75;2.75;;;;;;;;5079607;27;46061;-71
2023/12/29 01:28:43;;;;;;;;;1.00;1.00;;;;;;;;5079599;27;45256;-71
2023/12/29 01:31:08;;;;;;;;;2.00;2.00;;;;;;;;5079846;27;46235;-71
2023/12/29 01:33:34;;;;;;;;;2.00;1.33;;;;;;;;5079716;27;45487;-73
2023/12/29 01:36:00;;;;;;;;;1.33;1.33;;;;;;;;5079324;27;45499;-71
2023/12/29 01:38:25;;;;;;;;;1.00;1.00;;;;;;;;5079492;27;45467;-71
2023/12/29 01:40:50;;;;;;;;;2.00;2.00;;;;;;;;5079809;27;45376;-71
2023/12/29 01:43:16;;;;;;;;;2.00;2.00;;;;;;;;5079625;27;45428;-70
2023/12/29 01:45:41;;;;;;;;;2.00;2.00;;;;;;;;5079144;27;45535;-71
2023/12/29 01:48:07;;;;;;;;;2.00;1.67;;;;;;;;5079002;27;45440;-71
2023/12/29 01:50:33;;;;;;;;;1.33;1.00;;;;;;;;5079357;27;45533;-71
2023/12/29 01:52:59;;;;;;;;;2.00;1.33;;;;;;;;5079392;27;45718;-71
2023/12/29 01:55:25;;;;;;;;;1.67;1.00;;;;;;;;5079413;27;45286;-70
2023/12/29 01:57:51;;;;;;;;;2.00;1.00;;;;;;;;5079445;27;45347;-71
2023/12/29 02:00:17;;;;;;;;;1.50;0.00;;;;;;;;5079099;27;45364;-71
2023/12/29 02:02:43;;;;;;;;;2.00;1.00;;;;;;;;5079340;27;45230;-70
2023/12/29 02:05:13;;;;;;;;;1.33;1.33;;;;;;;;5078840;28;46180;-71
2023/12/29 02:07:38;;;;;;;;;1.00;1.00;;;;;;;;5077679;28;45388;-71
2023/12/29 02:10:04;;;;;;;;;0.00;0.00;;;;;;;;5078654;27;45475;-70
2023/12/29 02:12:30;;;;;;;;;1.00;1.00;;;;;;;;5077688;28;45471;-71
2023/12/29 02:14:55;;;;;;;;;2.00;2.00;;;;;;;;5078926;27;45448;-71
2023/12/29 02:17:20;;;;;;;;;2.00;2.00;;;;;;;;5078654;27;45864;-70
2023/12/29 02:19:48;;;;;;;;;4.00;3.00;;;;;;;;5078796;27;45311;-70
2023/12/29 02:22:14;;;;;;;;;2.33;2.00;;;;;;;;5079105;27;45309;-71
2023/12/29 02:24:40;;;;;;;;;2.00;2.00;;;;;;;;5078426;27;46316;-71
2023/12/29 02:27:24;;;;;;;;;3.33;2.67;;;;;;;;5078633;27;45353;-71
2023/12/29 02:29:58;;;;;;;;;2.00;1.00;;;;;;;;5078721;28;45220;-70
2023/12/29 02:32:25;;;;;;;;;1.75;1.75;;;;;;;;5079027;27;45361;-70
2023/12/29 02:34:50;;;;;;;;;2.67;2.67;;;;;;;;5078320;28;45420;-70
2023/12/29 02:37:16;;;;;;;;;2.50;2.50;;;;;;;;5078417;27;45372;-71
2023/12/29 02:39:41;;;;;;;;;3.00;3.00;;;;;;;;5078562;27;45221;-71
2023/12/29 02:42:07;;;;;;;;;3.33;3.00;;;;;;;;5078818;27;45316;-71
2023/12/29 02:44:32;;;;;;;;;6.00;2.00;;;;;;;;5078272;27;45314;-70
2023/12/29 02:46:59;;;;;;;;;2.50;2.50;;;;;;;;5078724;27;45432;-71
2023/12/29 02:49:24;;;;;;;;;1.00;0.33;;;;;;;;5078770;27;45302;-70
2023/12/29 02:51:50;;;;;;;;;3.00;2.00;;;;;;;;5078513;27;45377;-70
2023/12/29 02:54:15;;;;;;;;;1.00;1.00;;;;;;;;5078083;27;45404;-71
2023/12/29 02:56:41;;;;;;;;;2.00;1.00;;;;;;;;5078180;27;45240;-70
2023/12/29 02:59:06;;;;;;;;;5.25;4.00;;;;;;;;5078253;27;45469;-70
2023/12/29 03:01:31;;;;;;;;;14.25;14.25;;;;;;;;5078531;27;45418;-71
2023/12/29 03:03:57;;;;;;;;;11.50;9.25;;;;;;;;5078367;27;45853;-71
2023/12/29 03:06:22;;;;;;;;;3.50;3.50;;;;;;;;5076698;28;45440;-70
2023/12/29 03:08:47;;;;;;;;;3.25;2.00;;;;;;;;5078107;27;45318;-71
2023/12/29 03:11:13;;;;;;;;;6.00;5.25;;;;;;;;5078183;27;45442;-70
2023/12/29 03:13:38;;;;;;;;;6.00;5.00;;;;;;;;5077883;27;45958;-70
2023/12/29 03:16:03;;;;;;;;;2.00;2.00;;;;;;;;5077978;27;45337;-71
2023/12/29 03:18:29;;;;;;;;;0.00;0.00;;;;;;;;5078381;27;45515;-71
2023/12/29 03:20:54;;;;;;;;;0.00;0.00;;;;;;;;5076953;28;45485;-71
2023/12/29 03:23:19;;;;;;;;;1.00;1.00;;;;;;;;5077694;27;45753;-70
2023/12/29 03:25:45;;;;;;;;;1.00;1.00;;;;;;;;5077759;27;45455;-71
2023/12/29 03:28:10;;;;;;;;;1.00;1.00;;;;;;;;5077919;27;45417;-71
2023/12/29 03:30:36;;;;;;;;;1.00;1.00;;;;;;;;5078015;27;45447;-71
2023/12/29 03:33:02;;;;;;;;;1.00;1.00;;;;;;;;5077704;27;45313;-71
2023/12/29 03:35:27;;;;;;;;;1.00;1.00;;;;;;;;5077823;28;45503;-71
2023/12/29 03:37:53;;;;;;;;;0.00;0.00;;;;;;;;5077857;27;45302;-71
2023/12/29 03:40:18;;;;;;;;;1.00;1.00;;;;;;;;5077134;27;45387;-71
2023/12/29 03:42:44;;;;;;;;;1.00;1.00;;;;;;;;5077335;27;45494;-72
2023/12/29 03:45:09;;;;;;;;;1.67;1.00;;;;;;;;5077443;27;45309;-71
2023/12/29 03:47:35;;;;;;;;;1.00;1.00;;;;;;;;5077521;27;45405;-71
2023/12/29 03:50:01;;;;;;;;;3.50;3.50;;;;;;;;5077761;27;45463;-71
2023/12/29 03:52:26;;;;;;;;;8.75;7.50;;;;;;;;5077565;28;46053;-71
2023/12/29 03:54:52;;;;;;;;;4.33;2.00;;;;;;;;5077340;27;46003;-71
2023/12/29 03:57:17;;;;;;;;;1.67;1.67;;;;;;;;5077399;27;45333;-71
2023/12/29 03:59:42;;;;;;;;;2.00;1.00;;;;;;;;5076228;28;45297;-70
2023/12/29 04:02:08;;;;;;;;;0.00;0.00;;;;;;;;5077170;27;45360;-70
2023/12/29 04:04:36;;;;;;;;;2.00;1.00;;;;;;;;5077259;27;45334;-71
2023/12/29 04:07:02;;;;;;;;;1.00;1.00;;;;;;;;5077667;27;45474;-71
2023/12/29 04:09:27;;;;;;;;;1.00;1.00;;;;;;;;5077245;27;45399;-70
2023/12/29 04:11:52;;;;;;;;;0.00;0.00;;;;;;;;5077340;27;46057;-70
2023/12/29 04:14:18;;;;;;;;;0.67;0.67;;;;;;;;5077165;27;45565;-71
2023/12/29 04:16:43;;;;;;;;;1.67;1.00;;;;;;;;5077219;27;45457;-71
2023/12/29 04:19:09;;;;;;;;;1.00;1.00;;;;;;;;5077345;27;45309;-71
2023/12/29 04:21:34;;;;;;;;;1.00;1.00;;;;;;;;5077086;27;46128;-71
2023/12/29 04:24:00;;;;;;;;;1.00;1.00;;;;;;;;5077356;27;45432;-71
2023/12/29 04:26:25;;;;;;;;;1.00;1.00;;;;;;;;5077012;27;45491;-71
2023/12/29 04:28:51;;;;;;;;;0.33;0.00;;;;;;;;5077308;27;45196;-71
2023/12/29 04:31:16;;;;;;;;;2.33;1.00;;;;;;;;5076825;27;45221;-71
2023/12/29 04:33:41;;;;;;;;;1.00;1.00;;;;;;;;5076848;27;45501;-71
2023/12/29 04:36:07;;;;;;;;;0.00;0.00;;;;;;;;5076950;27;45691;-71
2023/12/29 04:38:32;;;;;;;;;0.00;0.00;;;;;;;;5077505;27;45307;-71
2023/12/29 04:40:57;;;;;;;;;1.00;0.00;;;;;;;;5076624;27;45658;-71
2023/12/29 04:43:23;;;;;;;;;0.67;0.33;;;;;;;;5076664;27;45414;-71
2023/12/29 04:45:48;;;;;;;;;1.33;1.33;;;;;;;;5076778;27;45375;-71
2023/12/29 04:48:13;;;;;;;;;1.00;0.67;;;;;;;;5076967;27;45389;-71
2023/12/29 04:50:39;;;;;;;;;1.00;0.67;;;;;;;;5076706;27;45233;-71
2023/12/29 04:53:04;;;;;;;;;1.00;1.00;;;;;;;;5080267;27;45349;-71
2023/12/29 04:55:30;;;;;;;;;2.00;1.00;;;;;;;;5080088;27;45156;-71
2023/12/29 04:57:55;;;;;;;;;1.67;1.00;;;;;;;;5080412;27;45338;-71
2023/12/29 05:00:20;;;;;;;;;1.00;1.00;;;;;;;;5078806;28;45416;-71
2023/12/29 05:02:46;;;;;;;;;0.00;0.00;;;;;;;;5080417;27;45699;-71
2023/12/29 05:05:11;;;;;;;;;0.00;0.00;;;;;;;;5078899;27;45726;-74
2023/12/29 05:07:36;;;;;;;;;1.00;1.00;;;;;;;;5079543;27;45537;-71
2023/12/29 05:10:02;;;;;;;;;1.00;0.00;;;;;;;;5078940;27;45434;-71
2023/12/29 05:12:27;;;;;;;;;1.00;1.00;;;;;;;;5079145;27;45287;-71
2023/12/29 05:14:53;;;;;;;;;2.50;1.00;;;;;;;;5079560;27;45281;-71
2023/12/29 05:17:18;;;;;;;;;3.00;2.75;;;;;;;;5079936;27;45532;-71
2023/12/29 05:19:43;;;;;;;;;7.25;7.25;;;;;;;;5078765;27;45541;-71
2023/12/29 05:22:09;;;;;;;;;6.00;4.75;;;;;;;;5078946;27;45530;-72
2023/12/29 05:24:34;;;;;;;;;3.00;2.25;;;;;;;;5079621;27;45831;-71
2023/12/29 05:26:59;;;;;;;;;0.33;0.33;;;;;;;;5079785;27;45529;-71
2023/12/29 05:29:25;;;;;;;;;1.00;1.00;;;;;;;;5079264;27;45464;-71
2023/12/29 05:31:51;;;;;;;;;1.33;0.00;;;;;;;;5079327;27;45478;-71
2023/12/29 05:34:16;;;;;;;;;1.50;1.00;;;;;;;;5078276;28;45464;-72
2023/12/29 05:36:42;;;;;;;;;2.50;2.00;;;;;;;;5078398;28;45322;-71
2023/12/29 05:39:07;;;;;;;;;3.25;3.25;;;;;;;;5079016;27;45951;-71
2023/12/29 05:41:32;;;;;;;;;4.50;3.50;;;;;;;;5079631;27;45213;-72
2023/12/29 05:43:58;;;;;;;;;3.00;2.25;;;;;;;;5079501;27;45888;-71
2023/12/29 05:46:23;;;;;;;;;1.50;1.00;;;;;;;;5079775;27;45377;-71
2023/12/29 05:48:49;;;;;;;;;1.00;1.00;;;;;;;;5079164;27;45253;-71
2023/12/29 05:51:14;;;;;;;;;2.00;1.00;;;;;;;;5079376;27;45265;-71
2023/12/29 05:53:40;;;;;;;;;1.00;1.00;;;;;;;;5077841;28;45389;-70
2023/12/29 05:56:05;;;;;;;;;0.67;0.67;;;;;;;;5079914;28;45272;-71
2023/12/29 05:58:31;;;;;;;;;1.00;1.00;;;;;;;;5079080;28;45377;-71
2023/12/29 06:00:57;;;;;;;;;2.25;1.00;;;;;;;;5077662;28;45448;-71
2023/12/29 06:03:23;;;;;;;;;2.00;1.00;;;;;;;;5077447;28;45402;-71
2023/12/29 06:05:48;;;;;;;;;0.67;0.67;;;;;;;;5079262;27;45562;-71
2023/12/29 06:08:14;;;;;;;;;0.00;0.00;;;;;;;;5078898;27;45990;-71
2023/12/29 06:10:39;;;;;;;;;22.75;20.00;;;;;;;;5077497;28;45487;-71
2023/12/29 06:13:05;;;;;;;;;264.00;210.00;;;;;;;;5079363;27;45401;-71
2023/12/29 06:15:30;;;;;;;;;82.50;65.00;;;;;;;;5079088;27;45285;-71
2023/12/29 06:17:56;;;;;;;;;74.25;57.50;;;;;;;;5078662;27;45245;-71
2023/12/29 06:20:21;;;;;;;;;11.75;10.00;;;;;;;;5077334;28;45318;-71
2023/12/29 06:22:47;;;;;;;;;3.25;3.25;;;;;;;;5077325;28;45640;-71
2023/12/29 06:25:12;;;;;;;;;1.25;1.25;;;;;;;;5077302;28;45370;-71
2023/12/29 06:27:38;;;;;;;;;2.00;2.00;;;;;;;;5078732;27;45383;-71
2023/12/29 06:30:07;;;;;;;;;4.00;4.00;;;;;;;;5078435;27;45471;-71
2023/12/29 06:32:33;;;;;;;;;3.50;3.00;;;;;;;;5078661;27;45487;-71
2023/12/29 06:34:58;;;;;;;;;11.75;10.75;;;;;;;;5078700;27;45322;-71
2023/12/29 06:37:23;;;;;;;;;3.25;3.25;;;;;;;;5078539;27;45376;-71
2023/12/29 06:39:49;;;;;;;;;34.25;31.00;;;;;;;;5078358;27;45476;-71
2023/12/29 06:42:14;;;;;;;;;41.00;35.75;;;;;;;;5078633;27;45823;-71
2023/12/29 06:44:40;;;;;;;;;13.75;13.75;;;;;;;;5079077;27;45328;-71
2023/12/29 06:47:06;;;;;;;;;12.75;12.00;;;;;;;;5078288;27;46196;-71
2023/12/29 06:49:32;;;;;;;;;6.00;5.50;;;;;;;;5076961;28;45329;-71
2023/12/29 06:51:57;;;;;;;;;4.25;3.25;;;;;;;;5078389;27;45491;-71
2023/12/29 06:54:23;;;;;;;;;2.00;2.00;;;;;;;;5078470;27;45497;-72
2023/12/29 06:56:48;;;;;;;;;1.00;1.00;;;;;;;;5077030;28;45464;-71
2023/12/29 06:59:14;;;;;;;;;1.00;1.00;;;;;;;;5078421;27;45565;-71
2023/12/29 07:01:42;;;;;;;;;1.33;1.00;;;;;;;;5078839;27;45952;-71
2023/12/29 07:04:10;;;;;;;;;1.00;1.00;;;;;;;;5079083;27;45356;-71
2023/12/29 07:06:36;;;;;;;;;1.33;1.00;;;;;;;;5078069;27;45456;-71
2023/12/29 07:09:01;;;;;;;;;0.00;0.00;;;;;;;;5076872;28;45406;-71
2023/12/29 07:11:26;;;;;;;;;1.00;1.00;;;;;;;;5077122;28;45904;-71
2023/12/29 07:13:52;;;;;;;;;1.00;1.00;;;;;;;;5077672;27;45523;-71
2023/12/29 07:16:19;;;;;;;;;0.33;0.00;;;;;;;;5078035;27;46004;-71
2023/12/29 07:18:45;;;;;;;;;2.00;1.00;;;;;;;;5078101;27;45438;-71
2023/12/29 07:21:12;;;;;;;;;2.00;1.00;;;;;;;;5076946;28;45518;-71
2023/12/29 07:23:37;;;;;;;;;4.75;4.00;;;;;;;;5078302;27;45376;-71
2023/12/29 07:26:03;;;;;;;;;13.50;12.00;;;;;;;;5077921;27;46089;-71
2023/12/29 07:28:28;;;;;;;;;17.50;17.25;;;;;;;;5077906;27;45247;-71
2023/12/29 07:30:53;;;;;;;;;13.00;11.00;;;;;;;;5078123;27;45320;-71
2023/12/29 07:33:19;;;;;;;;;12.50;10.50;;;;;;;;5078116;27;45365;-71
2023/12/29 07:35:44;;;;;;;;;7.00;7.00;;;;;;;;5077833;27;46063;-71
2023/12/29 07:38:10;;;;;;;;;2.00;2.00;;;;;;;;5077956;27;45305;-71
2023/12/29 07:40:35;;;;;;;;;1.00;1.00;;;;;;;;5077907;27;45633;-71
2023/12/29 07:43:00;;;;;;;;;1.67;1.00;;;;;;;;5077840;27;45318;-71
2023/12/29 07:45:26;;;;;;;;;1.33;1.00;;;;;;;;5077540;27;46003;-71
2023/12/29 07:47:51;;;;;;;;;1.00;1.00;;;;;;;;5077633;27;45521;-71
2023/12/29 07:50:16;;;;;;;;;3.00;3.00;;;;;;;;5077464;27;45580;-72
2023/12/29 07:52:43;;;;;;;;;1.00;1.00;;;;;;;;5077963;27;45205;-71
2023/12/29 07:55:08;;;;;;;;;4.00;4.00;;;;;;;;5077275;27;45405;-71
2023/12/29 07:57:33;;;;;;;;;1.00;1.00;;;;;;;;5077534;27;45517;-72
2023/12/29 07:59:59;;;;;;;;;4.00;3.50;;;;;;;;5077664;27;45601;-71
2023/12/29 08:02:24;;;;;;;;;8.00;8.00;;;;;;;;5077809;27;45468;-71
2023/12/29 08:04:49;;;;;;;;;8.75;8.75;;;;;;;;5077199;27;46333;-71
2023/12/29 08:07:15;;;;;;;;;4.00;4.00;;;;;;;;5077422;27;45440;-71
2023/12/29 08:09:40;;;;;;;;;4.00;3.50;;;;;;;;5077686;27;45801;-71
2023/12/29 08:12:06;;;;;;;;;5.00;4.75;;;;;;;;5077482;27;45239;-71
2023/12/29 08:14:32;;;;;;;;;6.00;4.50;;;;;;;;5077287;27;45975;-71
2023/12/29 08:16:57;;;;;;;;;4.75;4.75;;;;;;;;5076988;27;45795;-71
2023/12/29 08:19:23;;;;;;;;;8.25;7.00;;;;;;;;5077296;27;45299;-71
2023/12/29 08:21:48;;;;;;;;;6.25;6.25;;;;;;;;5077314;27;45286;-71
2023/12/29 08:24:14;;;;;;;;;7.25;6.00;;;;;;;;5077258;27;46070;-71
2023/12/29 08:26:48;;;;;;;;;10.25;8.25;;;;;;;;5080024;27;45491;-71
2023/12/29 08:29:14;;;;;;;;;7.75;6.50;;;;;;;;5081028;28;45461;-72
2023/12/29 08:31:39;;;;;;;;;6.00;5.00;;;;;;;;5080846;27;45429;-71
2023/12/29 08:34:04;;;;;;;;;6.25;6.00;;;;;;;;5080447;27;45444;-71
2023/12/29 08:36:30;;;;;;;;;4.00;3.00;;;;;;;;5080404;27;45282;-71
2023/12/29 08:38:56;;;;;;;;;6.25;6.00;;;;;;;;5080552;27;45542;-71
2023/12/29 08:41:22;;;;;;;;;13.50;12.25;;;;;;;;5080575;27;45497;-71
2023/12/29 08:43:47;;;;;;;;;11.75;11.00;;;;;;;;5080341;27;45961;-71
2023/12/29 08:46:13;;;;;;;;;6.50;6.00;;;;;;;;5080526;27;45325;-71
2023/12/29 08:48:38;;;;;;;;;3.25;3.00;;;;;;;;5080474;27;45168;-71
2023/12/29 08:51:03;;;;;;;;;3.00;2.00;;;;;;;;5080447;27;45505;-71
2023/12/29 08:53:33;;;;;;;;;1.00;1.00;;;;;;;;5078639;28;45868;-70
2023/12/29 08:55:58;;;;;;;;;2.00;2.00;;;;;;;;5080316;28;45483;-71
2023/12/29 08:58:24;;;;;;;;;2.00;2.00;;;;;;;;5080482;27;45321;-71
2023/12/29 09:00:49;;;;;;;;;1.00;1.00;;;;;;;;5080486;27;45326;-71
2023/12/29 09:03:16;;;;;;;;;7.00;7.00;;;;;;;;5080253;27;45383;-71
2023/12/29 09:05:42;;;;;;;;;11.25;11.00;;;;;;;;5078493;28;45426;-70
2023/12/29 09:08:07;;;;;;;;;7.00;7.00;;;;;;;;5080202;27;45388;-70
2023/12/29 09:10:32;;;;;;;;;10.00;8.50;;;;;;;;5078864;28;45516;-71
2023/12/29 09:12:58;;;;;;;;;6.00;6.00;;;;;;;;5078553;28;45456;-70
2023/12/29 09:15:23;;;;;;;;;8.00;7.33;;;;;;;;5079888;27;45353;-71
2023/12/29 09:17:49;;;;;;;;;9.25;8.00;;;;;;;;5080384;27;45706;-71
2023/12/29 09:20:14;;;;;;;;;23.50;19.75;;;;;;;;5080236;27;45423;-71
2023/12/29 09:22:40;;;;;;;;;21.25;19.75;;;;;;;;5079299;27;45597;-73
2023/12/29 09:25:05;;;;;;;;;14.25;14.00;;;;;;;;5078132;28;45455;-73
2023/12/29 09:27:31;;;;;;;;;12.25;11.00;;;;;;;;5079613;27;45237;-71
2023/12/29 09:29:56;;;;;;;;;11.50;11.50;;;;;;;;5079912;27;45519;-70
2023/12/29 09:32:22;;;;;;;;;9.67;9.67;;;;;;;;5079337;27;45595;-71
2023/12/29 09:34:47;;;;;;;;;15.00;14.75;;;;;;;;5079497;27;45555;-72
2023/12/29 09:37:12;;;;;;;;;12.33;10.33;;;;;;;;5077401;28;45782;-70
2023/12/29 09:39:38;;;;;;;;;12.75;12.75;;;;;;;;5079400;27;45463;-71
2023/12/29 09:42:03;;;;;;;;;13.75;12.75;;;;;;;;5079136;27;45426;-71
2023/12/29 09:44:30;;;;;;;;;12.00;11.00;;;;;;;;5077988;28;45281;-71
2023/12/29 09:46:57;;;;;;;;;13.67;13.67;;;;;;;;5079460;27;45216;-71
2023/12/29 09:49:23;;;;;;;;;11.67;10.67;;;;;;;;5079355;27;45416;-71
2023/12/29 09:51:49;;;;;;;;;15.00;15.00;;;;;;;;5079359;27;46356;-71
2023/12/29 09:54:15;;;;;;;;;13.33;12.67;;;;;;;;5078869;27;45490;-71
2023/12/29 09:56:40;;;;;;;;;8.67;7.67;;;;;;;;5079213;27;45443;-71
2023/12/29 09:59:06;;;;;;;;;12.33;10.67;;;;;;;;5079284;27;45514;-71
2023/12/29 10:01:32;;;;;;;;;11.67;10.67;;;;;;;;5079007;27;45693;-71
2023/12/29 10:03:57;;;;;;;;;14.00;12.00;;;;;;;;5078894;28;45366;-71
2023/12/29 10:06:25;;;;;;;;;8.00;7.67;;;;;;;;5079162;27;45283;-71
2023/12/29 10:08:51;;;;;;;;;8.00;7.33;;;;;;;;5079412;27;45460;-71
2023/12/29 10:11:22;;;;;;;;;11.67;11.67;;;;;;;;5078611;27;46077;-71
2023/12/29 10:13:49;;;;;;;;;13.67;12.00;;;;;;;;5078799;27;45372;-71
2023/12/29 10:16:34;;;;;;;;;11.33;11.33;;;;;;;;5078574;27;45625;-71
2023/12/29 10:18:59;;;;;;;;;14.33;13.33;;;;;;;;5078758;28;45369;-71
2023/12/29 10:21:29;;;;;;;;;18.00;17.67;;;;;;;;5078307;27;45455;-71
2023/12/29 10:24:00;;;;;;;;;6.00;5.00;;;;;;;;5078636;28;45492;-72
2023/12/29 10:26:26;;;;;;;;;5.00;5.00;;;;;;;;5078532;27;45528;-74
2023/12/29 10:28:52;;;;;;;;;7.00;7.00;;;;;;;;5079117;27;45384;-73
2023/12/29 10:31:17;;;;;;;;;6.33;6.00;;;;;;;;5078444;27;45476;-72
2023/12/29 10:33:43;;;;;;;;;7.00;6.00;;;;;;;;5078463;27;45480;-71
2023/12/29 10:36:08;;;;;;;;;8.00;5.33;;;;;;;;5078525;27;45173;-73
2023/12/29 10:38:34;;;;;;;;;5.33;5.00;;;;;;;;5078995;27;45846;-73
2023/12/29 10:41:13;;;;;;;;;5.33;4.00;;;;;;;;5078297;27;45513;-73
2023/12/29 10:43:38;;;;;;;;;11.67;9.00;;;;;;;;5078275;27;45448;-72
2023/12/29 10:46:08;;;;;;;;;6.00;6.00;;;;;;;;5078629;27;45484;-72
2023/12/29 10:48:33;;;;;;;;;10.33;8.00;;;;;;;;5076307;28;45492;-73
2023/12/29 10:51:01;;;;;;;;;10.00;8.00;;;;;;;;5077854;27;45984;-74
2023/12/29 10:53:26;;;;;;;;;4.67;4.67;;;;;;;;5078155;27;45461;-74
2023/12/29 10:55:52;;;;;;;;;22.50;19.75;;;;;;;;5078180;27;45522;-73
2023/12/29 10:58:19;;;;;;;;;18.25;18.25;;;;;;;;5078247;27;45404;-74
2023/12/29 11:00:45;;;;;;;;;10.33;9.33;;;;;;;;5077549;27;46085;-72
2023/12/29 11:03:14;;;;;;;;;10.67;9.33;;;;;;;;5077897;27;45720;-73
2023/12/29 11:05:40;;;;;;;;;9.00;6.67;;;;;;;;5078209;27;45261;-73
2023/12/29 11:08:14;;;;;;;;;13.67;11.33;;;;;;;;5078267;27;45779;-73
2023/12/29 11:10:40;;;;;;;;;7.00;6.00;;;;;;;;5077674;27;45278;-73
2023/12/29 11:13:07;;;;;;;;;2.33;2.33;;;;;;;;5077626;27;45477;-73
2023/12/29 11:15:33;;;;;;;;;3.00;2.67;;;;;;;;5078295;27;45469;-72
2023/12/29 11:17:59;;;;;;;;;4.00;3.00;;;;;;;;5077922;27;45334;-73
2023/12/29 11:20:26;;;;;;;;;2.00;1.00;;;;;;;;5077915;27;45260;-73
2023/12/29 11:22:51;;;;;;;;;1.00;1.00;;;;;;;;5077387;27;45389;-73
2023/12/29 11:25:17;;;;;;;;;2.00;2.00;;;;;;;;5077813;27;45313;-73
2023/12/29 11:27:42;;;;;;;;;3.00;2.00;;;;;;;;5077673;27;45366;-73
2023/12/29 11:30:11;;;;;;;;;7.67;7.00;;;;;;;;5076964;27;45594;-75
2023/12/29 11:32:42;;;;;;;;;3.00;3.00;;;;;;;;5076012;28;45432;-73
2023/12/29 11:35:13;;;;;;;;;4.00;4.00;;;;;;;;5076173;28;45346;-72
2023/12/29 11:37:56;;;;;;;;;2.00;2.00;;;;;;;;5077014;27;45442;-72
2023/12/29 11:40:40;;;;;;;;;2.67;1.00;;;;;;;;5077064;28;45452;-75
2023/12/29 11:43:08;;;;;;;;;1.00;1.00;;;;;;;;5076908;28;45337;-73
2023/12/29 11:45:37;;;;;;;;;1.00;1.00;;;;;;;;5076962;27;45291;-73
2023/12/29 11:48:02;;;;;;;;;2.00;1.00;;;;;;;;5077257;27;46186;-72
2023/12/29 11:50:32;;;;;;;;;0.00;0.00;;;;;;;;5077350;27;45482;-73
2023/12/29 11:52:58;;;;;;;;;1.00;1.00;;;;;;;;5077381;27;45451;-72
2023/12/29 11:55:28;;;;;;;;;2.00;1.00;;;;;;;;5077407;27;45765;-72
2023/12/29 11:57:53;;;;;;;;;1.67;1.00;;;;;;;;5077577;27;45580;-72
2023/12/29 12:00:19;;;;;;;;;1.00;1.00;;;;;;;;5074851;28;45547;-72
2023/12/29 12:02:44;;;;;;;;;1.00;1.00;;;;;;;;5076861;27;45303;-71
2023/12/29 12:05:10;;;;;;;;;1.00;1.00;;;;;;;;5076696;28;45289;-72
2023/12/29 12:07:35;;;;;;;;;1.00;1.00;;;;;;;;5077238;27;45446;-72
2023/12/29 12:10:19;;;;;;;;;0.00;0.00;;;;;;;;5075369;28;45450;-71
2023/12/29 12:12:45;;;;;;;;;1.33;1.33;;;;;;;;5076972;27;45176;-73
2023/12/29 12:15:29;;;;;;;;;1.33;1.33;;;;;;;;5076433;27;45284;-72
2023/12/29 12:17:55;;;;;;;;;5.00;5.00;;;;;;;;5077213;27;45462;-72
2023/12/29 12:20:20;;;;;;;;;5.67;5.67;;;;;;;;5075456;28;46293;-72
2023/12/29 12:22:48;;;;;;;;;6.00;5.00;;;;;;;;5076740;27;45500;-74
2023/12/29 12:25:14;;;;;;;;;4.33;4.00;;;;;;;;5075714;28;45330;-73
2023/12/29 12:27:39;;;;;;;;;3.00;2.67;;;;;;;;5076982;27;45388;-73
2023/12/29 12:30:09;;;;;;;;;3.00;3.00;;;;;;;;5076701;27;45444;-77
2023/12/29 12:32:35;;;;;;;;;3.67;3.00;;;;;;;;5075746;28;45551;-72
2023/12/29 12:35:01;;;;;;;;;4.00;4.00;;;;;;;;5077347;27;45439;-73
2023/12/29 12:37:27;;;;;;;;;6.00;6.00;;;;;;;;5077364;27;45436;-73
2023/12/29 12:39:52;;;;;;;;;4.00;3.00;;;;;;;;5076947;27;46066;-72
2023/12/29 12:42:22;;;;;;;;;12.00;10.33;;;;;;;;5076552;27;45418;-72
2023/12/29 12:44:50;;;;;;;;;4.33;3.00;;;;;;;;5076891;27;45347;-72
2023/12/29 12:47:17;;;;;;;;;4.00;4.00;;;;;;;;5077042;27;46095;-72
2023/12/29 12:49:43;;;;;;;;;6.67;6.00;;;;;;;;5076243;27;45514;-73
2023/12/29 12:52:09;;;;;;;;;4.67;4.00;;;;;;;;5075815;27;45614;-72
2023/12/29 12:54:34;;;;;;;;;4.00;3.00;;;;;;;;5076080;27;45295;-72
2023/12/29 12:57:00;;;;;;;;;6.00;5.00;;;;;;;;5077049;27;45394;-73
2023/12/29 12:59:27;;;;;;;;;6.33;4.33;;;;;;;;5076390;27;45463;-73
2023/12/29 13:01:52;;;;;;;;;3.00;3.00;;;;;;;;5076332;28;45688;-76
2023/12/29 13:04:17;;;;;;;;;5.00;4.00;;;;;;;;5076658;27;45479;-73
2023/12/29 13:06:43;;;;;;;;;4.33;4.00;;;;;;;;5076936;27;45492;-74
2023/12/29 13:09:11;;;;;;;;;5.00;5.00;;;;;;;;5076164;27;45373;-74
2023/12/29 13:11:36;;;;;;;;;18.00;18.00;;;;;;;;5076512;27;45390;-75
2023/12/29 13:14:02;;;;;;;;;8.33;7.67;;;;;;;;5079761;28;45233;-73
2023/12/29 13:16:35;;;;;;;;;8.00;7.00;;;;;;;;5080056;27;45321;-74
2023/12/29 13:19:19;;;;;;;;;7.00;7.00;;;;;;;;5079435;27;45496;-73
2023/12/29 13:21:48;;;;;;;;;8.33;8.33;;;;;;;;5079338;27;45378;-74
2023/12/29 13:24:16;;;;;;;;;11.67;11.00;;;;;;;;5079598;27;45309;-73
2023/12/29 13:26:44;;;;;;;;;9.33;7.33;;;;;;;;5079453;27;45277;-74
2023/12/29 13:29:14;;;;;;;;;13.67;12.00;;;;;;;;5079302;27;46506;-73
2023/12/29 13:31:39;;;;;;;;;9.00;8.00;;;;;;;;5078027;28;45433;-73
2023/12/29 13:34:11;;;;;;;;;6.67;6.33;;;;;;;;5079352;28;45471;-73
2023/12/29 13:36:40;;;;;;;;;14.00;12.33;;;;;;;;5079796;27;45474;-72
2023/12/29 13:39:13;;;;;;;;;9.33;9.33;;;;;;;;5077905;28;48447;-73
2023/12/29 13:41:39;;;;;;;;;11.00;9.67;;;;;;;;5077829;28;45492;-73
2023/12/29 13:44:05;;;;;;;;;9.00;6.67;;;;;;;;5079481;27;45452;-72
2023/12/29 13:46:31;;;;;;;;;5.67;5.33;;;;;;;;5079900;28;45480;-72
2023/12/29 13:48:57;;;;;;;;;10.00;7.00;;;;;;;;5078929;27;46139;-74
2023/12/29 13:51:26;;;;;;;;;10.33;10.33;;;;;;;;5079324;27;45350;-72
2023/12/29 13:54:00;;;;;;;;;4.67;4.33;;;;;;;;5079128;27;45326;-73
2023/12/29 13:56:26;;;;;;;;;7.33;7.00;;;;;;;;5079086;28;45776;-73
2023/12/29 13:58:51;;;;;;;;;7.00;5.67;;;;;;;;5078687;27;45580;-72
2023/12/29 14:01:17;;;;;;;;;11.33;9.00;;;;;;;;5079090;27;45666;-72
2023/12/29 14:03:47;;;;;;;;;7.00;5.67;;;;;;;;5077735;28;45606;-72
2023/12/29 14:06:20;;;;;;;;;4.33;4.00;;;;;;;;5079175;27;45489;-72
2023/12/29 14:08:46;;;;;;;;;9.00;6.33;;;;;;;;5078770;27;45449;-73
2023/12/29 14:11:11;;;;;;;;;4.67;3.67;;;;;;;;5077410;28;45359;-72
2023/12/29 14:13:43;;;;;;;;;6.33;4.33;;;;;;;;5078711;28;45517;-72
2023/12/29 14:16:09;;;;;;;;;5.00;4.00;;;;;;;;5078921;28;45504;-77
2023/12/29 14:18:40;;;;;;;;;2.00;2.00;;;;;;;;5078819;27;46006;-73
2023/12/29 14:21:26;;;;;;;;;4.00;4.00;;;;;;;;5078751;27;45527;-75
2023/12/29 14:23:58;;;;;;;;;11.33;9.33;;;;;;;;5067221;28;45444;-73
2023/12/29 14:26:24;;;;;;;;;10.00;9.00;;;;;;;;5078918;27;45206;-77
2023/12/29 14:28:59;;;;;;;;;8.67;8.00;;;;;;;;5078284;27;45764;-74
2023/12/29 14:31:25;;;;;;;;;5.00;4.00;;;;;;;;5078123;28;45528;-72
2023/12/29 14:33:50;;;;;;;;;7.00;5.67;;;;;;;;5078433;27;45397;-72